sensor_id;sensor_type;location;lat;lon;timestamp;P1;durP1;ratioP1;P2;durP2;ratioP2
37535;SDS011;23379;51.554;6.736;2024-03-25T00:00:42;62.55;;;30.30;;
37535;SDS011;23379;51.554;6.736;2024-03-25T00:03:08;63.10;;;29.10;;
37535;SDS011;23379;51.554;6.736;2024-03-25T00:05:33;61.92;;;27.77;;
37535;SDS011;23379;51.554;6.736;2024-03-25T00:07:59;64.28;;;27.77;;
37535;SDS011;23379;51.554;6.736;2024-03-25T00:10:24;58.92;;;28.10;;
37535;SDS011;23379;51.554;6.736;2024-03-25T00:12:49;50.13;;;25.15;;
37535;SDS011;23379;51.554;6.736;2024-03-25T00:15:19;54.40;;;25.20;;
37535;SDS011;23379;51.554;6.736;2024-03-25T00:17:45;63.47;;;24.98;;
37535;SDS011;23379;51.554;6.736;2024-03-25T00:20:14;76.55;;;30.77;;
37535;SDS011;23379;51.554;6.736;2024-03-25T00:22:40;87.10;;;38.22;;
37535;SDS011;23379;51.554;6.736;2024-03-25T00:25:05;89.53;;;43.33;;
37535;SDS011;23379;51.554;6.736;2024-03-25T00:27:31;95.20;;;46.55;;
37535;SDS011;23379;51.554;6.736;2024-03-25T00:29:57;87.22;;;44.45;;
37535;SDS011;23379;51.554;6.736;2024-03-25T00:32:22;104.38;;;50.88;;
37535;SDS011;23379;51.554;6.736;2024-03-25T00:34:47;96.13;;;50.97;;
37535;SDS011;23379;51.554;6.736;2024-03-25T00:37:13;95.03;;;48.42;;
37535;SDS011;23379;51.554;6.736;2024-03-25T00:39:39;94.25;;;50.22;;
37535;SDS011;23379;51.554;6.736;2024-03-25T00:42:05;84.82;;;46.08;;
37535;SDS011;23379;51.554;6.736;2024-03-25T00:44:30;105.93;;;52.75;;
37535;SDS011;23379;51.554;6.736;2024-03-25T00:46:56;104.38;;;49.65;;
37535;SDS011;23379;51.554;6.736;2024-03-25T00:49:21;88.45;;;47.83;;
37535;SDS011;23379;51.554;6.736;2024-03-25T00:51:47;89.00;;;44.33;;
37535;SDS011;23379;51.554;6.736;2024-03-25T00:54:12;79.68;;;40.13;;
37535;SDS011;23379;51.554;6.736;2024-03-25T00:56:37;71.97;;;36.33;;
37535;SDS011;23379;51.554;6.736;2024-03-25T00:59:03;70.80;;;33.65;;
37535;SDS011;23379;51.554;6.736;2024-03-25T01:01:29;74.32;;;31.40;;
37535;SDS011;23379;51.554;6.736;2024-03-25T01:03:55;67.88;;;29.58;;
37535;SDS011;23379;51.554;6.736;2024-03-25T01:06:20;60.20;;;27.10;;
37535;SDS011;23379;51.554;6.736;2024-03-25T01:08:46;63.38;;;25.05;;
37535;SDS011;23379;51.554;6.736;2024-03-25T01:11:11;50.42;;;21.25;;
37535;SDS011;23379;51.554;6.736;2024-03-25T01:13:36;51.25;;;20.08;;
37535;SDS011;23379;51.554;6.736;2024-03-25T01:16:02;40.25;;;18.00;;
37535;SDS011;23379;51.554;6.736;2024-03-25T01:18:27;47.40;;;17.23;;
37535;SDS011;23379;51.554;6.736;2024-03-25T01:20:53;36.33;;;14.38;;
37535;SDS011;23379;51.554;6.736;2024-03-25T01:23:18;35.13;;;13.15;;
37535;SDS011;23379;51.554;6.736;2024-03-25T01:25:43;33.10;;;12.55;;
37535;SDS011;23379;51.554;6.736;2024-03-25T01:28:09;37.08;;;11.23;;
37535;SDS011;23379;51.554;6.736;2024-03-25T01:30:34;29.58;;;9.82;;
37535;SDS011;23379;51.554;6.736;2024-03-25T01:33:00;32.92;;;8.75;;
37535;SDS011;23379;51.554;6.736;2024-03-25T01:35:26;28.30;;;9.15;;
37535;SDS011;23379;51.554;6.736;2024-03-25T01:37:52;21.70;;;7.47;;
37535;SDS011;23379;51.554;6.736;2024-03-25T01:40:18;27.23;;;7.45;;
37535;SDS011;23379;51.554;6.736;2024-03-25T01:42:43;31.25;;;7.28;;
37535;SDS011;23379;51.554;6.736;2024-03-25T01:45:09;31.40;;;6.82;;
37535;SDS011;23379;51.554;6.736;2024-03-25T01:47:35;30.83;;;6.72;;
37535;SDS011;23379;51.554;6.736;2024-03-25T01:50:00;19.60;;;5.85;;
37535;SDS011;23379;51.554;6.736;2024-03-25T01:52:28;23.70;;;6.63;;
37535;SDS011;23379;51.554;6.736;2024-03-25T01:54:54;22.27;;;6.05;;
37535;SDS011;23379;51.554;6.736;2024-03-25T01:57:20;22.27;;;5.68;;
37535;SDS011;23379;51.554;6.736;2024-03-25T01:59:46;24.50;;;6.35;;
37535;SDS011;23379;51.554;6.736;2024-03-25T02:02:11;27.15;;;6.28;;
37535;SDS011;23379;51.554;6.736;2024-03-25T02:04:38;25.33;;;6.10;;
37535;SDS011;23379;51.554;6.736;2024-03-25T02:07:05;25.20;;;6.03;;
37535;SDS011;23379;51.554;6.736;2024-03-25T02:09:32;26.48;;;5.78;;
37535;SDS011;23379;51.554;6.736;2024-03-25T02:11:58;22.92;;;5.95;;
37535;SDS011;23379;51.554;6.736;2024-03-25T02:14:24;26.85;;;5.53;;
37535;SDS011;23379;51.554;6.736;2024-03-25T02:16:50;23.38;;;5.57;;
37535;SDS011;23379;51.554;6.736;2024-03-25T02:19:15;31.98;;;5.80;;
37535;SDS011;23379;51.554;6.736;2024-03-25T02:21:40;17.95;;;5.10;;
37535;SDS011;23379;51.554;6.736;2024-03-25T02:24:07;23.98;;;5.53;;
37535;SDS011;23379;51.554;6.736;2024-03-25T02:26:34;29.83;;;6.05;;
37535;SDS011;23379;51.554;6.736;2024-03-25T02:29:00;22.95;;;5.65;;
37535;SDS011;23379;51.554;6.736;2024-03-25T02:31:26;26.90;;;5.05;;
37535;SDS011;23379;51.554;6.736;2024-03-25T02:33:51;25.92;;;5.60;;
37535;SDS011;23379;51.554;6.736;2024-03-25T02:36:16;32.88;;;5.38;;
37535;SDS011;23379;51.554;6.736;2024-03-25T02:38:42;16.17;;;4.97;;
37535;SDS011;23379;51.554;6.736;2024-03-25T02:41:08;25.67;;;5.38;;
37535;SDS011;23379;51.554;6.736;2024-03-25T02:43:34;13.27;;;4.97;;
37535;SDS011;23379;51.554;6.736;2024-03-25T02:45:59;23.85;;;6.05;;
37535;SDS011;23379;51.554;6.736;2024-03-25T02:48:25;26.33;;;5.53;;
37535;SDS011;23379;51.554;6.736;2024-03-25T02:50:50;25.63;;;5.93;;
37535;SDS011;23379;51.554;6.736;2024-03-25T02:53:15;25.25;;;5.13;;
37535;SDS011;23379;51.554;6.736;2024-03-25T02:55:41;30.55;;;5.10;;
37535;SDS011;23379;51.554;6.736;2024-03-25T02:58:06;19.15;;;5.50;;
37535;SDS011;23379;51.554;6.736;2024-03-25T03:00:31;32.10;;;5.53;;
37535;SDS011;23379;51.554;6.736;2024-03-25T03:02:57;31.33;;;5.57;;
37535;SDS011;23379;51.554;6.736;2024-03-25T03:05:22;33.03;;;6.22;;
37535;SDS011;23379;51.554;6.736;2024-03-25T03:07:47;27.58;;;5.50;;
37535;SDS011;23379;51.554;6.736;2024-03-25T03:10:13;29.67;;;6.65;;
37535;SDS011;23379;51.554;6.736;2024-03-25T03:12:38;26.35;;;5.60;;
37535;SDS011;23379;51.554;6.736;2024-03-25T03:15:04;22.02;;;4.97;;
37535;SDS011;23379;51.554;6.736;2024-03-25T03:17:29;26.80;;;5.72;;
37535;SDS011;23379;51.554;6.736;2024-03-25T03:19:55;22.92;;;5.03;;
37535;SDS011;23379;51.554;6.736;2024-03-25T03:22:20;25.20;;;5.47;;
37535;SDS011;23379;51.554;6.736;2024-03-25T03:24:46;29.85;;;5.55;;
37535;SDS011;23379;51.554;6.736;2024-03-25T03:27:11;19.80;;;4.90;;
37535;SDS011;23379;51.554;6.736;2024-03-25T03:29:36;33.88;;;6.03;;
37535;SDS011;23379;51.554;6.736;2024-03-25T03:32:02;19.67;;;4.85;;
37535;SDS011;23379;51.554;6.736;2024-03-25T03:34:27;33.25;;;5.32;;
37535;SDS011;23379;51.554;6.736;2024-03-25T03:36:52;25.63;;;5.18;;
37535;SDS011;23379;51.554;6.736;2024-03-25T03:39:18;34.00;;;5.88;;
37535;SDS011;23379;51.554;6.736;2024-03-25T03:41:44;23.30;;;5.43;;
37535;SDS011;23379;51.554;6.736;2024-03-25T03:44:09;20.90;;;5.10;;
37535;SDS011;23379;51.554;6.736;2024-03-25T03:46:34;23.63;;;5.03;;
37535;SDS011;23379;51.554;6.736;2024-03-25T03:49:00;20.77;;;4.63;;
37535;SDS011;23379;51.554;6.736;2024-03-25T03:51:25;30.58;;;5.00;;
37535;SDS011;23379;51.554;6.736;2024-03-25T03:53:51;22.13;;;5.15;;
37535;SDS011;23379;51.554;6.736;2024-03-25T03:56:16;33.10;;;5.75;;
37535;SDS011;23379;51.554;6.736;2024-03-25T03:58:42;24.25;;;5.35;;
37535;SDS011;23379;51.554;6.736;2024-03-25T04:01:14;30.27;;;5.88;;
37535;SDS011;23379;51.554;6.736;2024-03-25T04:03:41;27.02;;;5.38;;
37535;SDS011;23379;51.554;6.736;2024-03-25T04:06:12;32.10;;;5.57;;
37535;SDS011;23379;51.554;6.736;2024-03-25T04:08:38;14.48;;;4.55;;
37535;SDS011;23379;51.554;6.736;2024-03-25T04:11:05;23.77;;;5.38;;
37535;SDS011;23379;51.554;6.736;2024-03-25T04:13:34;16.95;;;4.82;;
37535;SDS011;23379;51.554;6.736;2024-03-25T04:16:01;17.25;;;4.57;;
37535;SDS011;23379;51.554;6.736;2024-03-25T04:18:28;20.63;;;4.53;;
37535;SDS011;23379;51.554;6.736;2024-03-25T04:20:54;20.63;;;5.22;;
37535;SDS011;23379;51.554;6.736;2024-03-25T04:23:19;22.88;;;5.05;;
37535;SDS011;23379;51.554;6.736;2024-03-25T04:25:44;29.50;;;5.35;;
37535;SDS011;23379;51.554;6.736;2024-03-25T04:28:09;21.77;;;5.10;;
37535;SDS011;23379;51.554;6.736;2024-03-25T04:30:35;20.92;;;5.10;;
37535;SDS011;23379;51.554;6.736;2024-03-25T04:33:01;25.30;;;4.68;;
37535;SDS011;23379;51.554;6.736;2024-03-25T04:35:27;20.42;;;4.60;;
37535;SDS011;23379;51.554;6.736;2024-03-25T04:37:52;19.75;;;5.07;;
37535;SDS011;23379;51.554;6.736;2024-03-25T04:40:20;16.00;;;4.75;;
37535;SDS011;23379;51.554;6.736;2024-03-25T04:42:45;27.48;;;4.72;;
37535;SDS011;23379;51.554;6.736;2024-03-25T04:45:11;14.40;;;4.38;;
37535;SDS011;23379;51.554;6.736;2024-03-25T04:47:37;15.82;;;4.68;;
37535;SDS011;23379;51.554;6.736;2024-03-25T04:50:02;22.77;;;4.65;;
37535;SDS011;23379;51.554;6.736;2024-03-25T04:52:28;20.10;;;4.72;;
37535;SDS011;23379;51.554;6.736;2024-03-25T04:54:53;13.00;;;4.30;;
37535;SDS011;23379;51.554;6.736;2024-03-25T04:57:18;22.90;;;5.00;;
37535;SDS011;23379;51.554;6.736;2024-03-25T04:59:44;16.90;;;5.20;;
37535;SDS011;23379;51.554;6.736;2024-03-25T05:02:09;22.05;;;4.60;;
37535;SDS011;23379;51.554;6.736;2024-03-25T05:04:35;19.95;;;5.72;;
37535;SDS011;23379;51.554;6.736;2024-03-25T05:07:00;17.55;;;4.80;;
37535;SDS011;23379;51.554;6.736;2024-03-25T05:09:26;22.20;;;5.47;;
37535;SDS011;23379;51.554;6.736;2024-03-25T05:11:51;20.52;;;5.05;;
37535;SDS011;23379;51.554;6.736;2024-03-25T05:14:17;18.67;;;5.05;;
37535;SDS011;23379;51.554;6.736;2024-03-25T05:16:42;15.95;;;4.85;;
37535;SDS011;23379;51.554;6.736;2024-03-25T05:19:07;18.95;;;5.68;;
37535;SDS011;23379;51.554;6.736;2024-03-25T05:21:33;20.05;;;4.75;;
37535;SDS011;23379;51.554;6.736;2024-03-25T05:23:58;21.75;;;5.28;;
37535;SDS011;23379;51.554;6.736;2024-03-25T05:26:24;22.52;;;5.30;;
37535;SDS011;23379;51.554;6.736;2024-03-25T05:28:53;29.02;;;5.43;;
37535;SDS011;23379;51.554;6.736;2024-03-25T05:31:19;19.05;;;5.07;;
37535;SDS011;23379;51.554;6.736;2024-03-25T05:33:44;14.15;;;4.40;;
37535;SDS011;23379;51.554;6.736;2024-03-25T05:36:10;16.33;;;5.35;;
37535;SDS011;23379;51.554;6.736;2024-03-25T05:38:35;16.00;;;4.78;;
37535;SDS011;23379;51.554;6.736;2024-03-25T05:41:01;15.98;;;5.15;;
37535;SDS011;23379;51.554;6.736;2024-03-25T05:43:27;16.88;;;5.45;;
37535;SDS011;23379;51.554;6.736;2024-03-25T05:45:53;16.75;;;5.00;;
37535;SDS011;23379;51.554;6.736;2024-03-25T05:48:19;13.07;;;4.57;;
37535;SDS011;23379;51.554;6.736;2024-03-25T05:50:59;15.60;;;5.25;;
37535;SDS011;23379;51.554;6.736;2024-03-25T05:53:30;13.10;;;5.18;;
37535;SDS011;23379;51.554;6.736;2024-03-25T05:55:56;24.95;;;5.95;;
37535;SDS011;23379;51.554;6.736;2024-03-25T05:58:24;23.48;;;5.60;;
37535;SDS011;23379;51.554;6.736;2024-03-25T06:00:50;14.48;;;5.78;;
37535;SDS011;23379;51.554;6.736;2024-03-25T06:03:15;17.67;;;4.85;;
37535;SDS011;23379;51.554;6.736;2024-03-25T06:05:42;20.95;;;5.90;;
37535;SDS011;23379;51.554;6.736;2024-03-25T06:08:07;20.05;;;5.82;;
37535;SDS011;23379;51.554;6.736;2024-03-25T06:10:41;17.75;;;5.85;;
37535;SDS011;23379;51.554;6.736;2024-03-25T06:13:06;16.45;;;5.35;;
37535;SDS011;23379;51.554;6.736;2024-03-25T06:15:32;10.23;;;5.18;;
37535;SDS011;23379;51.554;6.736;2024-03-25T06:17:57;14.48;;;5.38;;
37535;SDS011;23379;51.554;6.736;2024-03-25T06:20:22;27.35;;;6.63;;
37535;SDS011;23379;51.554;6.736;2024-03-25T06:22:48;25.15;;;6.80;;
37535;SDS011;23379;51.554;6.736;2024-03-25T06:25:13;22.38;;;6.60;;
37535;SDS011;23379;51.554;6.736;2024-03-25T06:27:38;21.67;;;6.63;;
37535;SDS011;23379;51.554;6.736;2024-03-25T06:30:04;32.78;;;7.13;;
37535;SDS011;23379;51.554;6.736;2024-03-25T06:32:48;15.88;;;6.75;;
37535;SDS011;23379;51.554;6.736;2024-03-25T06:35:32;26.35;;;6.72;;
37535;SDS011;23379;51.554;6.736;2024-03-25T06:37:58;24.17;;;6.72;;
37535;SDS011;23379;51.554;6.736;2024-03-25T06:40:23;30.33;;;7.88;;
37535;SDS011;23379;51.554;6.736;2024-03-25T06:42:48;25.80;;;7.47;;
37535;SDS011;23379;51.554;6.736;2024-03-25T06:45:14;23.00;;;6.47;;
37535;SDS011;23379;51.554;6.736;2024-03-25T06:47:41;24.15;;;8.48;;
37535;SDS011;23379;51.554;6.736;2024-03-25T06:50:06;30.00;;;7.63;;
37535;SDS011;23379;51.554;6.736;2024-03-25T06:52:32;29.55;;;7.60;;
37535;SDS011;23379;51.554;6.736;2024-03-25T06:54:57;24.67;;;8.15;;
37535;SDS011;23379;51.554;6.736;2024-03-25T06:57:22;35.55;;;7.25;;
37535;SDS011;23379;51.554;6.736;2024-03-25T06:59:48;23.10;;;8.23;;
37535;SDS011;23379;51.554;6.736;2024-03-25T07:02:13;23.85;;;7.55;;
37535;SDS011;23379;51.554;6.736;2024-03-25T07:04:38;24.38;;;7.72;;
37535;SDS011;23379;51.554;6.736;2024-03-25T07:07:04;22.42;;;6.95;;
37535;SDS011;23379;51.554;6.736;2024-03-25T07:09:29;29.35;;;8.00;;
37535;SDS011;23379;51.554;6.736;2024-03-25T07:11:55;28.83;;;7.78;;
37535;SDS011;23379;51.554;6.736;2024-03-25T07:14:20;23.00;;;7.63;;
37535;SDS011;23379;51.554;6.736;2024-03-25T07:16:45;23.23;;;7.13;;
37535;SDS011;23379;51.554;6.736;2024-03-25T07:19:11;25.90;;;7.45;;
37535;SDS011;23379;51.554;6.736;2024-03-25T07:21:36;32.25;;;8.07;;
37535;SDS011;23379;51.554;6.736;2024-03-25T07:24:01;25.63;;;7.28;;
37535;SDS011;23379;51.554;6.736;2024-03-25T07:26:27;27.52;;;7.28;;
37535;SDS011;23379;51.554;6.736;2024-03-25T07:28:52;25.75;;;7.47;;
37535;SDS011;23379;51.554;6.736;2024-03-25T07:31:18;23.88;;;6.88;;
37535;SDS011;23379;51.554;6.736;2024-03-25T07:33:43;20.17;;;7.07;;
37535;SDS011;23379;51.554;6.736;2024-03-25T07:36:08;22.08;;;6.78;;
37535;SDS011;23379;51.554;6.736;2024-03-25T07:38:34;24.65;;;8.02;;
37535;SDS011;23379;51.554;6.736;2024-03-25T07:41:03;24.80;;;7.50;;
37535;SDS011;23379;51.554;6.736;2024-03-25T07:43:31;29.13;;;7.65;;
37535;SDS011;23379;51.554;6.736;2024-03-25T07:45:56;21.33;;;7.00;;
37535;SDS011;23379;51.554;6.736;2024-03-25T07:48:21;24.58;;;7.18;;
37535;SDS011;23379;51.554;6.736;2024-03-25T07:50:47;19.48;;;6.57;;
37535;SDS011;23379;51.554;6.736;2024-03-25T07:53:12;23.38;;;6.57;;
37535;SDS011;23379;51.554;6.736;2024-03-25T07:55:37;27.40;;;7.28;;
37535;SDS011;23379;51.554;6.736;2024-03-25T07:58:03;23.73;;;6.53;;
37535;SDS011;23379;51.554;6.736;2024-03-25T08:00:28;29.85;;;7.05;;
37535;SDS011;23379;51.554;6.736;2024-03-25T08:02:54;18.83;;;6.22;;
37535;SDS011;23379;51.554;6.736;2024-03-25T08:05:19;15.65;;;6.38;;
37535;SDS011;23379;51.554;6.736;2024-03-25T08:07:45;18.98;;;6.38;;
37535;SDS011;23379;51.554;6.736;2024-03-25T08:10:11;24.52;;;5.57;;
37535;SDS011;23379;51.554;6.736;2024-03-25T08:12:36;21.13;;;5.63;;
37535;SDS011;23379;51.554;6.736;2024-03-25T08:15:01;22.67;;;5.00;;
37535;SDS011;23379;51.554;6.736;2024-03-25T08:17:28;21.42;;;5.50;;
37535;SDS011;23379;51.554;6.736;2024-03-25T08:19:53;22.13;;;6.03;;
37535;SDS011;23379;51.554;6.736;2024-03-25T08:22:18;25.98;;;4.80;;
37535;SDS011;23379;51.554;6.736;2024-03-25T08:24:44;20.73;;;5.38;;
37535;SDS011;23379;51.554;6.736;2024-03-25T08:27:10;19.27;;;4.03;;
37535;SDS011;23379;51.554;6.736;2024-03-25T08:29:35;14.98;;;3.85;;
37535;SDS011;23379;51.554;6.736;2024-03-25T08:32:01;15.85;;;4.07;;
37535;SDS011;23379;51.554;6.736;2024-03-25T08:34:26;15.30;;;3.50;;
37535;SDS011;23379;51.554;6.736;2024-03-25T08:36:51;17.17;;;3.47;;
37535;SDS011;23379;51.554;6.736;2024-03-25T08:39:16;14.32;;;3.05;;
37535;SDS011;23379;51.554;6.736;2024-03-25T08:41:42;12.73;;;3.05;;
37535;SDS011;23379;51.554;6.736;2024-03-25T08:44:07;21.05;;;3.17;;
37535;SDS011;23379;51.554;6.736;2024-03-25T08:46:32;13.13;;;2.95;;
37535;SDS011;23379;51.554;6.736;2024-03-25T08:48:58;12.00;;;2.28;;
37535;SDS011;23379;51.554;6.736;2024-03-25T08:51:23;10.88;;;2.28;;
37535;SDS011;23379;51.554;6.736;2024-03-25T08:53:48;11.15;;;2.35;;
37535;SDS011;23379;51.554;6.736;2024-03-25T08:56:15;11.95;;;2.55;;
37535;SDS011;23379;51.554;6.736;2024-03-25T08:58:40;8.18;;;1.75;;
37535;SDS011;23379;51.554;6.736;2024-03-25T09:01:05;7.70;;;1.98;;
37535;SDS011;23379;51.554;6.736;2024-03-25T09:03:31;6.50;;;1.48;;
37535;SDS011;23379;51.554;6.736;2024-03-25T09:05:57;6.00;;;1.80;;
37535;SDS011;23379;51.554;6.736;2024-03-25T09:08:22;6.60;;;1.88;;
37535;SDS011;23379;51.554;6.736;2024-03-25T09:10:48;11.50;;;2.30;;
37535;SDS011;23379;51.554;6.736;2024-03-25T09:13:31;11.65;;;2.55;;
37535;SDS011;23379;51.554;6.736;2024-03-25T09:15:57;8.35;;;1.75;;
37535;SDS011;23379;51.554;6.736;2024-03-25T09:18:22;10.98;;;1.98;;
37535;SDS011;23379;51.554;6.736;2024-03-25T09:20:47;10.68;;;1.98;;
37535;SDS011;23379;51.554;6.736;2024-03-25T09:23:13;7.78;;;2.17;;
37535;SDS011;23379;51.554;6.736;2024-03-25T09:25:38;9.52;;;1.80;;
37535;SDS011;23379;51.554;6.736;2024-03-25T09:28:04;6.43;;;1.88;;
37535;SDS011;23379;51.554;6.736;2024-03-25T09:30:29;11.90;;;1.88;;
37535;SDS011;23379;51.554;6.736;2024-03-25T09:32:54;12.38;;;1.58;;
37535;SDS011;23379;51.554;6.736;2024-03-25T09:35:20;8.80;;;1.63;;
37535;SDS011;23379;51.554;6.736;2024-03-25T09:37:46;8.00;;;1.58;;
37535;SDS011;23379;51.554;6.736;2024-03-25T09:40:11;10.50;;;1.95;;
37535;SDS011;23379;51.554;6.736;2024-03-25T09:42:49;4.72;;;1.65;;
37535;SDS011;23379;51.554;6.736;2024-03-25T09:45:20;7.55;;;2.28;;
37535;SDS011;23379;51.554;6.736;2024-03-25T09:47:49;8.38;;;1.83;;
37535;SDS011;23379;51.554;6.736;2024-03-25T09:50:16;8.95;;;2.00;;
37535;SDS011;23379;51.554;6.736;2024-03-25T09:52:44;12.75;;;2.28;;
37535;SDS011;23379;51.554;6.736;2024-03-25T09:55:16;6.38;;;2.00;;
37535;SDS011;23379;51.554;6.736;2024-03-25T09:57:45;9.15;;;2.22;;
37535;SDS011;23379;51.554;6.736;2024-03-25T10:00:11;8.93;;;1.83;;
37535;SDS011;23379;51.554;6.736;2024-03-25T10:02:37;8.02;;;2.15;;
37535;SDS011;23379;51.554;6.736;2024-03-25T10:05:04;9.52;;;2.35;;
37535;SDS011;23379;51.554;6.736;2024-03-25T10:07:30;7.18;;;1.58;;
37535;SDS011;23379;51.554;6.736;2024-03-25T10:09:55;7.75;;;1.88;;
37535;SDS011;23379;51.554;6.736;2024-03-25T10:12:21;5.70;;;1.65;;
37535;SDS011;23379;51.554;6.736;2024-03-25T10:14:46;6.57;;;1.70;;
37535;SDS011;23379;51.554;6.736;2024-03-25T10:17:12;5.32;;;1.58;;
37535;SDS011;23379;51.554;6.736;2024-03-25T10:19:38;7.93;;;2.05;;
37535;SDS011;23379;51.554;6.736;2024-03-25T10:22:06;9.65;;;2.25;;
37535;SDS011;23379;51.554;6.736;2024-03-25T10:24:39;5.07;;;1.60;;
37535;SDS011;23379;51.554;6.736;2024-03-25T10:27:09;5.32;;;2.00;;
37535;SDS011;23379;51.554;6.736;2024-03-25T10:29:36;8.18;;;1.83;;
37535;SDS011;23379;51.554;6.736;2024-03-25T10:32:02;7.72;;;1.77;;
37535;SDS011;23379;51.554;6.736;2024-03-25T10:34:29;5.40;;;1.45;;
37535;SDS011;23379;51.554;6.736;2024-03-25T10:36:56;7.57;;;1.60;;
37535;SDS011;23379;51.554;6.736;2024-03-25T10:39:24;13.85;;;2.22;;
37535;SDS011;23379;51.554;6.736;2024-03-25T10:41:51;9.48;;;1.92;;
37535;SDS011;23379;51.554;6.736;2024-03-25T10:44:20;7.93;;;1.17;;
37535;SDS011;23379;51.554;6.736;2024-03-25T10:46:46;4.70;;;1.30;;
37535;SDS011;23379;51.554;6.736;2024-03-25T10:49:16;7.57;;;1.88;;
37535;SDS011;23379;51.554;6.736;2024-03-25T10:51:50;6.32;;;1.45;;
37535;SDS011;23379;51.554;6.736;2024-03-25T10:54:17;7.95;;;1.98;;
37535;SDS011;23379;51.554;6.736;2024-03-25T10:56:43;6.47;;;1.48;;
37535;SDS011;23379;51.554;6.736;2024-03-25T10:59:09;8.27;;;1.95;;
37535;SDS011;23379;51.554;6.736;2024-03-25T11:01:36;9.32;;;1.55;;
37535;SDS011;23379;51.554;6.736;2024-03-25T11:04:02;8.85;;;1.95;;
37535;SDS011;23379;51.554;6.736;2024-03-25T11:06:31;6.05;;;1.67;;
37535;SDS011;23379;51.554;6.736;2024-03-25T11:08:56;7.63;;;1.42;;
37535;SDS011;23379;51.554;6.736;2024-03-25T11:11:30;7.93;;;1.60;;
37535;SDS011;23379;51.554;6.736;2024-03-25T11:13:59;5.47;;;1.50;;
37535;SDS011;23379;51.554;6.736;2024-03-25T11:16:30;6.93;;;1.60;;
37535;SDS011;23379;51.554;6.736;2024-03-25T11:19:02;8.57;;;2.10;;
37535;SDS011;23379;51.554;6.736;2024-03-25T11:21:28;7.47;;;1.55;;
37535;SDS011;23379;51.554;6.736;2024-03-25T11:23:54;6.75;;;1.92;;
37535;SDS011;23379;51.554;6.736;2024-03-25T11:26:24;8.00;;;1.73;;
37535;SDS011;23379;51.554;6.736;2024-03-25T11:28:50;7.30;;;1.77;;
37535;SDS011;23379;51.554;6.736;2024-03-25T11:31:18;7.68;;;1.70;;
37535;SDS011;23379;51.554;6.736;2024-03-25T11:33:45;7.88;;;2.03;;
37535;SDS011;23379;51.554;6.736;2024-03-25T11:36:10;10.10;;;2.97;;
37535;SDS011;23379;51.554;6.736;2024-03-25T11:38:36;9.65;;;2.67;;
37535;SDS011;23379;51.554;6.736;2024-03-25T11:41:03;7.72;;;2.40;;
37535;SDS011;23379;51.554;6.736;2024-03-25T11:43:29;7.10;;;1.92;;
37535;SDS011;23379;51.554;6.736;2024-03-25T11:45:54;6.40;;;1.92;;
37535;SDS011;23379;51.554;6.736;2024-03-25T11:48:20;7.72;;;2.40;;
37535;SDS011;23379;51.554;6.736;2024-03-25T11:50:45;9.15;;;2.20;;
37535;SDS011;23379;51.554;6.736;2024-03-25T11:53:12;9.00;;;2.38;;
37535;SDS011;23379;51.554;6.736;2024-03-25T11:55:39;9.52;;;2.53;;
37535;SDS011;23379;51.554;6.736;2024-03-25T11:58:05;8.05;;;2.20;;
37535;SDS011;23379;51.554;6.736;2024-03-25T12:00:32;6.93;;;2.50;;
37535;SDS011;23379;51.554;6.736;2024-03-25T12:02:57;8.68;;;2.13;;
37535;SDS011;23379;51.554;6.736;2024-03-25T12:05:23;8.07;;;2.08;;
37535;SDS011;23379;51.554;6.736;2024-03-25T12:07:48;6.10;;;1.60;;
37535;SDS011;23379;51.554;6.736;2024-03-25T12:10:15;7.70;;;1.65;;
37535;SDS011;23379;51.554;6.736;2024-03-25T12:12:59;8.52;;;2.22;;
37535;SDS011;23379;51.554;6.736;2024-03-25T12:15:24;7.95;;;2.25;;
37535;SDS011;23379;51.554;6.736;2024-03-25T12:17:51;10.88;;;2.55;;
37535;SDS011;23379;51.554;6.736;2024-03-25T12:20:17;7.95;;;2.25;;
37535;SDS011;23379;51.554;6.736;2024-03-25T12:22:43;8.50;;;2.33;;
37535;SDS011;23379;51.554;6.736;2024-03-25T12:25:09;10.05;;;2.55;;
37535;SDS011;23379;51.554;6.736;2024-03-25T12:27:35;11.45;;;3.03;;
37535;SDS011;23379;51.554;6.736;2024-03-25T12:30:03;13.93;;;3.08;;
37535;SDS011;23379;51.554;6.736;2024-03-25T12:32:38;12.57;;;3.90;;
37535;SDS011;23379;51.554;6.736;2024-03-25T12:35:09;10.40;;;3.13;;
37535;SDS011;23379;51.554;6.736;2024-03-25T12:37:36;8.80;;;3.03;;
37535;SDS011;23379;51.554;6.736;2024-03-25T12:40:03;11.40;;;2.80;;
37535;SDS011;23379;51.554;6.736;2024-03-25T12:42:31;10.38;;;3.45;;
37535;SDS011;23379;51.554;6.736;2024-03-25T12:44:57;7.95;;;3.00;;
37535;SDS011;23379;51.554;6.736;2024-03-25T12:47:22;7.38;;;2.95;;
37535;SDS011;23379;51.554;6.736;2024-03-25T12:49:48;10.50;;;3.05;;
37535;SDS011;23379;51.554;6.736;2024-03-25T12:52:13;8.00;;;3.08;;
37535;SDS011;23379;51.554;6.736;2024-03-25T12:54:38;10.13;;;3.35;;
37535;SDS011;23379;51.554;6.736;2024-03-25T12:57:06;9.45;;;3.47;;
37535;SDS011;23379;51.554;6.736;2024-03-25T12:59:31;8.32;;;2.90;;
37535;SDS011;23379;51.554;6.736;2024-03-25T13:01:57;9.43;;;3.10;;
37535;SDS011;23379;51.554;6.736;2024-03-25T13:04:22;11.90;;;3.53;;
37535;SDS011;23379;51.554;6.736;2024-03-25T13:06:48;13.80;;;3.55;;
37535;SDS011;23379;51.554;6.736;2024-03-25T13:09:13;13.20;;;3.65;;
37535;SDS011;23379;51.554;6.736;2024-03-25T13:11:38;10.65;;;3.30;;
37535;SDS011;23379;51.554;6.736;2024-03-25T13:14:04;9.60;;;3.55;;
37535;SDS011;23379;51.554;6.736;2024-03-25T13:16:31;7.45;;;3.13;;
37535;SDS011;23379;51.554;6.736;2024-03-25T13:18:57;11.75;;;3.30;;
37535;SDS011;23379;51.554;6.736;2024-03-25T13:21:23;8.85;;;3.47;;
37535;SDS011;23379;51.554;6.736;2024-03-25T13:23:50;12.18;;;3.20;;
37535;SDS011;23379;51.554;6.736;2024-03-25T13:26:15;8.43;;;2.88;;
37535;SDS011;23379;51.554;6.736;2024-03-25T13:28:41;12.48;;;3.42;;
37535;SDS011;23379;51.554;6.736;2024-03-25T13:31:06;9.50;;;3.33;;
37535;SDS011;23379;51.554;6.736;2024-03-25T13:33:31;9.90;;;3.17;;
37535;SDS011;23379;51.554;6.736;2024-03-25T13:35:57;9.38;;;3.33;;
37535;SDS011;23379;51.554;6.736;2024-03-25T13:38:22;7.90;;;2.92;;
37535;SDS011;23379;51.554;6.736;2024-03-25T13:40:47;16.77;;;3.83;;
37535;SDS011;23379;51.554;6.736;2024-03-25T13:43:13;9.07;;;3.03;;
37535;SDS011;23379;51.554;6.736;2024-03-25T13:45:40;9.00;;;2.88;;
37535;SDS011;23379;51.554;6.736;2024-03-25T13:48:12;8.60;;;3.10;;
37535;SDS011;23379;51.554;6.736;2024-03-25T13:50:37;7.90;;;2.80;;
37535;SDS011;23379;51.554;6.736;2024-03-25T13:53:03;7.88;;;2.38;;
37535;SDS011;23379;51.554;6.736;2024-03-25T13:55:29;6.63;;;2.05;;
37535;SDS011;23379;51.554;6.736;2024-03-25T13:57:54;10.45;;;2.35;;
37535;SDS011;23379;51.554;6.736;2024-03-25T14:00:19;6.40;;;1.75;;
37535;SDS011;23379;51.554;6.736;2024-03-25T14:02:46;9.45;;;1.85;;
37535;SDS011;23379;51.554;6.736;2024-03-25T14:05:12;6.10;;;1.70;;
37535;SDS011;23379;51.554;6.736;2024-03-25T14:07:37;7.18;;;1.88;;
37535;SDS011;23379;51.554;6.736;2024-03-25T14:10:03;6.57;;;1.55;;
37535;SDS011;23379;51.554;6.736;2024-03-25T14:12:29;5.43;;;1.73;;
37535;SDS011;23379;51.554;6.736;2024-03-25T14:14:54;6.82;;;1.60;;
37535;SDS011;23379;51.554;6.736;2024-03-25T14:17:20;4.97;;;1.50;;
37535;SDS011;23379;51.554;6.736;2024-03-25T14:19:45;6.82;;;1.77;;
37535;SDS011;23379;51.554;6.736;2024-03-25T14:22:11;7.60;;;1.70;;
37535;SDS011;23379;51.554;6.736;2024-03-25T14:24:36;4.30;;;1.60;;
37535;SDS011;23379;51.554;6.736;2024-03-25T14:27:01;5.38;;;1.60;;
37535;SDS011;23379;51.554;6.736;2024-03-25T14:29:27;7.60;;;1.83;;